Terminal Aerodrome Forecast
Issued by NWS

Home | Current Version | Previous Version | Text Only | Print | Product List | Glossary On
Versions: 1 2 3 4 5 6 7 8 9 10 11 12 13
000
FTUS46 KMTR 291739
TAFOAK
TAF
KOAK 291739Z 2918/3024 27010KT P6SM SKC
     FM292200 28017G25KT P6SM SCT250
     FM300400 28015KT P6SM FEW010 BKN250
     FM301200 28008KT P6SM BKN008
     FM301700 29005KT P6SM SCT010
     FM301800 28012KT P6SM SKC=

USA.gov is the U.S. government's official web portal to all federal, state and local government web resources and services.